sensor_id;sensor_type;location;lat;lon;timestamp;P1;durP1;ratioP1;P2;durP2;ratioP2
81318;SDS011;70784;48.420;14.830;2023-06-22T00:01:24;7.65;;;1.98;;
81318;SDS011;70784;48.420;14.830;2023-06-22T00:04:08;8.45;;;1.75;;
81318;SDS011;70784;48.420;14.830;2023-06-22T00:06:52;4.00;;;1.60;;
81318;SDS011;70784;48.420;14.830;2023-06-22T00:09:37;3.83;;;1.60;;
81318;SDS011;70784;48.420;14.830;2023-06-22T00:12:21;9.57;;;1.98;;
81318;SDS011;70784;48.420;14.830;2023-06-22T00:15:06;4.55;;;1.80;;
81318;SDS011;70784;48.420;14.830;2023-06-22T00:17:51;5.40;;;1.73;;
81318;SDS011;70784;48.420;14.830;2023-06-22T00:20:35;6.43;;;1.80;;
81318;SDS011;70784;48.420;14.830;2023-06-22T00:23:21;4.40;;;1.55;;
81318;SDS011;70784;48.420;14.830;2023-06-22T00:26:07;7.15;;;1.88;;
81318;SDS011;70784;48.420;14.830;2023-06-22T00:28:52;2.65;;;1.58;;
81318;SDS011;70784;48.420;14.830;2023-06-22T00:31:36;6.53;;;1.45;;
81318;SDS011;70784;48.420;14.830;2023-06-22T00:34:21;4.60;;;1.60;;
81318;SDS011;70784;48.420;14.830;2023-06-22T00:37:05;6.35;;;1.90;;
81318;SDS011;70784;48.420;14.830;2023-06-22T00:39:50;5.63;;;1.63;;
81318;SDS011;70784;48.420;14.830;2023-06-22T00:42:34;7.05;;;1.65;;
81318;SDS011;70784;48.420;14.830;2023-06-22T00:45:19;4.65;;;1.73;;
81318;SDS011;70784;48.420;14.830;2023-06-22T00:48:03;4.65;;;1.38;;
81318;SDS011;70784;48.420;14.830;2023-06-22T00:50:49;4.78;;;1.30;;
81318;SDS011;70784;48.420;14.830;2023-06-22T00:53:35;3.78;;;1.60;;
81318;SDS011;70784;48.420;14.830;2023-06-22T00:56:21;6.63;;;1.50;;
81318;SDS011;70784;48.420;14.830;2023-06-22T00:59:09;5.65;;;1.63;;
81318;SDS011;70784;48.420;14.830;2023-06-22T01:01:56;4.88;;;1.70;;
81318;SDS011;70784;48.420;14.830;2023-06-22T01:04:41;2.78;;;1.10;;
81318;SDS011;70784;48.420;14.830;2023-06-22T01:07:34;6.97;;;1.58;;
81318;SDS011;70784;48.420;14.830;2023-06-22T01:10:25;3.80;;;1.30;;
81318;SDS011;70784;48.420;14.830;2023-06-22T01:16:05;4.97;;;2.33;;
81318;SDS011;70784;48.420;14.830;2023-06-22T01:22:30;5.15;;;1.80;;
81318;SDS011;70784;48.420;14.830;2023-06-22T01:25:28;4.40;;;1.52;;
81318;SDS011;70784;48.420;14.830;2023-06-22T01:31:34;4.85;;;1.60;;
81318;SDS011;70784;48.420;14.830;2023-06-22T01:34:19;4.07;;;1.15;;
81318;SDS011;70784;48.420;14.830;2023-06-22T01:37:05;5.28;;;1.50;;
81318;SDS011;70784;48.420;14.830;2023-06-22T01:39:51;7.00;;;1.70;;
81318;SDS011;70784;48.420;14.830;2023-06-22T01:42:38;3.38;;;1.45;;
81318;SDS011;70784;48.420;14.830;2023-06-22T01:45:23;3.33;;;1.35;;
81318;SDS011;70784;48.420;14.830;2023-06-22T01:48:08;5.60;;;1.85;;
81318;SDS011;70784;48.420;14.830;2023-06-22T01:50:53;4.35;;;1.83;;
81318;SDS011;70784;48.420;14.830;2023-06-22T01:53:38;2.88;;;1.48;;
81318;SDS011;70784;48.420;14.830;2023-06-22T01:56:22;10.00;;;1.92;;
81318;SDS011;70784;48.420;14.830;2023-06-22T02:02:18;2.97;;;1.50;;
81318;SDS011;70784;48.420;14.830;2023-06-22T02:05:11;6.38;;;1.50;;
81318;SDS011;70784;48.420;14.830;2023-06-22T02:08:05;2.85;;;1.40;;
81318;SDS011;70784;48.420;14.830;2023-06-22T02:10:55;5.80;;;1.40;;
81318;SDS011;70784;48.420;14.830;2023-06-22T02:13:44;4.65;;;1.88;;
81318;SDS011;70784;48.420;14.830;2023-06-22T02:16:31;5.47;;;1.38;;
81318;SDS011;70784;48.420;14.830;2023-06-22T02:19:22;8.32;;;1.67;;
81318;SDS011;70784;48.420;14.830;2023-06-22T02:22:10;2.85;;;1.33;;
81318;SDS011;70784;48.420;14.830;2023-06-22T02:24:58;5.68;;;1.65;;
81318;SDS011;70784;48.420;14.830;2023-06-22T02:27:44;2.75;;;1.50;;
81318;SDS011;70784;48.420;14.830;2023-06-22T02:30:31;4.18;;;1.52;;
81318;SDS011;70784;48.420;14.830;2023-06-22T02:33:18;5.90;;;1.60;;
81318;SDS011;70784;48.420;14.830;2023-06-22T02:36:04;3.92;;;1.42;;
81318;SDS011;70784;48.420;14.830;2023-06-22T02:38:54;3.67;;;1.48;;
81318;SDS011;70784;48.420;14.830;2023-06-22T02:41:45;3.15;;;1.70;;
81318;SDS011;70784;48.420;14.830;2023-06-22T02:44:32;3.47;;;1.40;;
81318;SDS011;70784;48.420;14.830;2023-06-22T02:47:18;2.88;;;1.40;;
81318;SDS011;70784;48.420;14.830;2023-06-22T02:50:05;5.95;;;1.30;;
81318;SDS011;70784;48.420;14.830;2023-06-22T02:52:52;6.72;;;1.67;;
81318;SDS011;70784;48.420;14.830;2023-06-22T02:55:41;6.35;;;1.63;;
81318;SDS011;70784;48.420;14.830;2023-06-22T02:58:28;5.28;;;1.77;;
81318;SDS011;70784;48.420;14.830;2023-06-22T03:01:14;7.28;;;1.80;;
81318;SDS011;70784;48.420;14.830;2023-06-22T03:04:03;4.57;;;1.80;;
81318;SDS011;70784;48.420;14.830;2023-06-22T03:06:50;3.95;;;1.63;;
81318;SDS011;70784;48.420;14.830;2023-06-22T03:09:38;2.95;;;1.67;;
81318;SDS011;70784;48.420;14.830;2023-06-22T03:12:25;3.92;;;1.58;;
81318;SDS011;70784;48.420;14.830;2023-06-22T03:15:12;6.30;;;1.58;;
81318;SDS011;70784;48.420;14.830;2023-06-22T03:17:59;4.47;;;1.80;;
81318;SDS011;70784;48.420;14.830;2023-06-22T03:20:45;3.88;;;1.45;;
81318;SDS011;70784;48.420;14.830;2023-06-22T03:23:31;4.35;;;2.00;;
81318;SDS011;70784;48.420;14.830;2023-06-22T03:26:18;3.13;;;1.30;;
81318;SDS011;70784;48.420;14.830;2023-06-22T03:29:05;4.40;;;1.73;;
81318;SDS011;70784;48.420;14.830;2023-06-22T03:31:51;5.90;;;1.80;;
81318;SDS011;70784;48.420;14.830;2023-06-22T03:34:37;7.32;;;1.60;;
81318;SDS011;70784;48.420;14.830;2023-06-22T03:37:24;4.40;;;1.65;;
81318;SDS011;70784;48.420;14.830;2023-06-22T03:40:11;4.47;;;1.60;;
81318;SDS011;70784;48.420;14.830;2023-06-22T03:42:58;5.97;;;2.20;;
81318;SDS011;70784;48.420;14.830;2023-06-22T03:45:48;4.95;;;2.20;;
81318;SDS011;70784;48.420;14.830;2023-06-22T03:48:41;5.70;;;1.95;;
81318;SDS011;70784;48.420;14.830;2023-06-22T03:51:28;5.00;;;1.80;;
81318;SDS011;70784;48.420;14.830;2023-06-22T03:54:15;3.60;;;1.70;;
81318;SDS011;70784;48.420;14.830;2023-06-22T03:57:02;3.83;;;1.50;;
81318;SDS011;70784;48.420;14.830;2023-06-22T03:59:49;4.55;;;1.73;;
81318;SDS011;70784;48.420;14.830;2023-06-22T04:02:35;4.68;;;1.95;;
81318;SDS011;70784;48.420;14.830;2023-06-22T04:05:22;3.08;;;1.52;;
81318;SDS011;70784;48.420;14.830;2023-06-22T04:08:09;4.85;;;1.85;;
81318;SDS011;70784;48.420;14.830;2023-06-22T04:10:56;5.78;;;2.38;;
81318;SDS011;70784;48.420;14.830;2023-06-22T04:13:43;3.03;;;1.88;;
81318;SDS011;70784;48.420;14.830;2023-06-22T04:16:30;4.10;;;2.05;;
81318;SDS011;70784;48.420;14.830;2023-06-22T04:19:17;2.92;;;1.77;;
81318;SDS011;70784;48.420;14.830;2023-06-22T04:22:04;4.65;;;2.35;;
81318;SDS011;70784;48.420;14.830;2023-06-22T04:24:56;6.10;;;2.25;;
81318;SDS011;70784;48.420;14.830;2023-06-22T04:27:43;4.82;;;2.03;;
81318;SDS011;70784;48.420;14.830;2023-06-22T04:30:32;4.38;;;2.40;;
81318;SDS011;70784;48.420;14.830;2023-06-22T04:33:19;4.30;;;1.92;;
81318;SDS011;70784;48.420;14.830;2023-06-22T04:36:05;7.60;;;2.67;;
81318;SDS011;70784;48.420;14.830;2023-06-22T04:38:52;5.95;;;2.63;;
81318;SDS011;70784;48.420;14.830;2023-06-22T04:41:40;3.63;;;2.33;;
81318;SDS011;70784;48.420;14.830;2023-06-22T04:44:27;3.83;;;1.90;;
81318;SDS011;70784;48.420;14.830;2023-06-22T04:47:14;5.43;;;2.10;;
81318;SDS011;70784;48.420;14.830;2023-06-22T04:50:01;5.85;;;2.45;;
81318;SDS011;70784;48.420;14.830;2023-06-22T04:52:50;4.88;;;2.38;;
81318;SDS011;70784;48.420;14.830;2023-06-22T04:55:37;3.45;;;2.40;;
81318;SDS011;70784;48.420;14.830;2023-06-22T04:58:26;4.97;;;2.75;;
81318;SDS011;70784;48.420;14.830;2023-06-22T05:01:13;4.25;;;2.20;;
81318;SDS011;70784;48.420;14.830;2023-06-22T05:03:59;7.15;;;2.45;;
81318;SDS011;70784;48.420;14.830;2023-06-22T05:06:46;19.73;;;8.50;;
81318;SDS011;70784;48.420;14.830;2023-06-22T05:09:33;5.88;;;2.25;;
81318;SDS011;70784;48.420;14.830;2023-06-22T05:12:20;5.43;;;3.30;;
81318;SDS011;70784;48.420;14.830;2023-06-22T05:15:07;4.03;;;2.22;;
81318;SDS011;70784;48.420;14.830;2023-06-22T05:17:57;6.72;;;2.03;;
81318;SDS011;70784;48.420;14.830;2023-06-22T05:20:49;7.82;;;2.45;;
81318;SDS011;70784;48.420;14.830;2023-06-22T05:23:39;5.38;;;1.90;;
81318;SDS011;70784;48.420;14.830;2023-06-22T05:26:26;3.75;;;1.98;;
81318;SDS011;70784;48.420;14.830;2023-06-22T05:29:12;4.70;;;1.77;;
81318;SDS011;70784;48.420;14.830;2023-06-22T05:31:58;5.20;;;2.17;;
81318;SDS011;70784;48.420;14.830;2023-06-22T05:34:47;4.88;;;2.28;;
81318;SDS011;70784;48.420;14.830;2023-06-22T05:40:20;4.22;;;1.95;;
81318;SDS011;70784;48.420;14.830;2023-06-22T05:43:07;5.68;;;1.88;;
81318;SDS011;70784;48.420;14.830;2023-06-22T05:45:54;4.30;;;1.70;;
81318;SDS011;70784;48.420;14.830;2023-06-22T05:48:40;3.38;;;1.65;;
81318;SDS011;70784;48.420;14.830;2023-06-22T05:51:26;3.70;;;1.70;;
81318;SDS011;70784;48.420;14.830;2023-06-22T05:54:13;4.30;;;2.33;;
81318;SDS011;70784;48.420;14.830;2023-06-22T05:57:00;5.22;;;1.73;;
81318;SDS011;70784;48.420;14.830;2023-06-22T05:59:50;6.25;;;2.03;;
81318;SDS011;70784;48.420;14.830;2023-06-22T06:02:38;6.00;;;1.92;;
81318;SDS011;70784;48.420;14.830;2023-06-22T06:05:29;2.95;;;1.83;;
81318;SDS011;70784;48.420;14.830;2023-06-22T06:08:19;5.90;;;1.80;;
81318;SDS011;70784;48.420;14.830;2023-06-22T06:11:06;4.05;;;1.90;;
81318;SDS011;70784;48.420;14.830;2023-06-22T06:13:50;5.13;;;2.63;;
81318;SDS011;70784;48.420;14.830;2023-06-22T06:16:36;6.88;;;1.80;;
81318;SDS011;70784;48.420;14.830;2023-06-22T06:19:20;5.70;;;2.05;;
81318;SDS011;70784;48.420;14.830;2023-06-22T06:22:04;4.28;;;1.63;;
81318;SDS011;70784;48.420;14.830;2023-06-22T06:24:49;5.43;;;1.85;;
81318;SDS011;70784;48.420;14.830;2023-06-22T06:27:34;6.68;;;2.90;;
81318;SDS011;70784;48.420;14.830;2023-06-22T06:30:19;4.15;;;1.35;;
81318;SDS011;70784;48.420;14.830;2023-06-22T06:33:04;7.53;;;2.10;;
81318;SDS011;70784;48.420;14.830;2023-06-22T06:35:52;3.67;;;1.90;;
81318;SDS011;70784;48.420;14.830;2023-06-22T06:38:36;6.30;;;2.08;;
81318;SDS011;70784;48.420;14.830;2023-06-22T06:41:21;3.83;;;2.05;;
81318;SDS011;70784;48.420;14.830;2023-06-22T06:44:06;9.00;;;2.17;;
81318;SDS011;70784;48.420;14.830;2023-06-22T06:46:50;4.25;;;1.85;;
81318;SDS011;70784;48.420;14.830;2023-06-22T06:49:34;5.30;;;2.20;;
81318;SDS011;70784;48.420;14.830;2023-06-22T06:52:19;4.30;;;1.73;;
81318;SDS011;70784;48.420;14.830;2023-06-22T06:55:04;5.75;;;1.63;;
81318;SDS011;70784;48.420;14.830;2023-06-22T06:57:52;6.97;;;2.80;;
81318;SDS011;70784;48.420;14.830;2023-06-22T07:00:37;4.70;;;2.05;;
81318;SDS011;70784;48.420;14.830;2023-06-22T07:03:22;5.15;;;2.25;;
81318;SDS011;70784;48.420;14.830;2023-06-22T07:06:07;4.68;;;2.63;;
81318;SDS011;70784;48.420;14.830;2023-06-22T07:08:53;8.18;;;2.40;;
81318;SDS011;70784;48.420;14.830;2023-06-22T07:11:37;3.92;;;2.03;;
81318;SDS011;70784;48.420;14.830;2023-06-22T07:14:22;5.25;;;2.03;;
81318;SDS011;70784;48.420;14.830;2023-06-22T07:17:06;4.00;;;2.13;;
81318;SDS011;70784;48.420;14.830;2023-06-22T07:19:51;2.25;;;1.45;;
81318;SDS011;70784;48.420;14.830;2023-06-22T07:22:35;4.72;;;2.22;;
81318;SDS011;70784;48.420;14.830;2023-06-22T07:25:20;3.05;;;1.38;;
81318;SDS011;70784;48.420;14.830;2023-06-22T07:28:06;4.90;;;2.13;;
81318;SDS011;70784;48.420;14.830;2023-06-22T07:30:51;7.10;;;2.60;;
81318;SDS011;70784;48.420;14.830;2023-06-22T07:33:36;5.25;;;2.63;;
81318;SDS011;70784;48.420;14.830;2023-06-22T07:36:20;4.07;;;1.77;;
81318;SDS011;70784;48.420;14.830;2023-06-22T07:39:05;3.28;;;2.03;;
81318;SDS011;70784;48.420;14.830;2023-06-22T07:41:49;4.07;;;1.80;;
81318;SDS011;70784;48.420;14.830;2023-06-22T07:44:34;6.78;;;2.58;;
81318;SDS011;70784;48.420;14.830;2023-06-22T07:47:18;6.20;;;2.67;;
81318;SDS011;70784;48.420;14.830;2023-06-22T07:50:03;4.10;;;1.77;;
81318;SDS011;70784;48.420;14.830;2023-06-22T07:52:48;5.15;;;2.25;;
81318;SDS011;70784;48.420;14.830;2023-06-22T07:55:32;3.88;;;1.73;;
81318;SDS011;70784;48.420;14.830;2023-06-22T07:58:17;5.82;;;2.67;;
81318;SDS011;70784;48.420;14.830;2023-06-22T08:01:03;4.00;;;1.45;;
81318;SDS011;70784;48.420;14.830;2023-06-22T08:03:48;2.08;;;0.95;;
81318;SDS011;70784;48.420;14.830;2023-06-22T08:06:33;4.30;;;1.70;;
81318;SDS011;70784;48.420;14.830;2023-06-22T08:09:17;9.20;;;2.55;;
81318;SDS011;70784;48.420;14.830;2023-06-22T08:12:02;6.30;;;2.20;;
81318;SDS011;70784;48.420;14.830;2023-06-22T08:14:46;6.05;;;2.05;;
81318;SDS011;70784;48.420;14.830;2023-06-22T08:17:31;4.43;;;2.15;;
81318;SDS011;70784;48.420;14.830;2023-06-22T08:20:15;4.47;;;1.90;;
81318;SDS011;70784;48.420;14.830;2023-06-22T08:23:00;9.45;;;2.78;;
81318;SDS011;70784;48.420;14.830;2023-06-22T08:25:50;5.10;;;1.80;;
81318;SDS011;70784;48.420;14.830;2023-06-22T08:28:35;5.22;;;2.95;;
81318;SDS011;70784;48.420;14.830;2023-06-22T08:31:20;2.38;;;1.77;;
81318;SDS011;70784;48.420;14.830;2023-06-22T08:34:05;4.68;;;2.50;;
81318;SDS011;70784;48.420;14.830;2023-06-22T08:36:49;5.13;;;2.10;;
81318;SDS011;70784;48.420;14.830;2023-06-22T08:39:35;5.38;;;1.65;;
81318;SDS011;70784;48.420;14.830;2023-06-22T08:42:20;3.05;;;1.77;;
81318;SDS011;70784;48.420;14.830;2023-06-22T08:45:05;4.00;;;2.35;;
81318;SDS011;70784;48.420;14.830;2023-06-22T08:47:50;3.70;;;1.80;;
81318;SDS011;70784;48.420;14.830;2023-06-22T08:50:35;4.72;;;2.63;;
81318;SDS011;70784;48.420;14.830;2023-06-22T08:53:19;2.95;;;1.23;;
81318;SDS011;70784;48.420;14.830;2023-06-22T08:56:05;5.45;;;2.67;;
81318;SDS011;70784;48.420;14.830;2023-06-22T08:58:49;2.88;;;1.73;;
81318;SDS011;70784;48.420;14.830;2023-06-22T09:01:34;6.60;;;2.38;;
81318;SDS011;70784;48.420;14.830;2023-06-22T09:04:18;9.68;;;2.50;;
81318;SDS011;70784;48.420;14.830;2023-06-22T09:07:06;2.10;;;1.17;;
81318;SDS011;70784;48.420;14.830;2023-06-22T09:09:50;8.77;;;2.13;;
81318;SDS011;70784;48.420;14.830;2023-06-22T09:12:35;5.40;;;3.05;;
81318;SDS011;70784;48.420;14.830;2023-06-22T09:15:21;3.03;;;1.50;;
81318;SDS011;70784;48.420;14.830;2023-06-22T09:18:06;3.25;;;1.85;;
81318;SDS011;70784;48.420;14.830;2023-06-22T09:20:54;8.00;;;2.38;;
81318;SDS011;70784;48.420;14.830;2023-06-22T09:23:38;3.10;;;1.77;;
81318;SDS011;70784;48.420;14.830;2023-06-22T09:26:23;4.68;;;2.05;;
81318;SDS011;70784;48.420;14.830;2023-06-22T09:29:08;5.20;;;2.33;;
81318;SDS011;70784;48.420;14.830;2023-06-22T09:31:53;6.30;;;2.63;;
81318;SDS011;70784;48.420;14.830;2023-06-22T09:34:38;11.35;;;2.72;;
81318;SDS011;70784;48.420;14.830;2023-06-22T09:37:22;6.03;;;2.35;;
81318;SDS011;70784;48.420;14.830;2023-06-22T09:40:07;2.60;;;1.70;;
81318;SDS011;70784;48.420;14.830;2023-06-22T09:42:54;4.68;;;1.65;;
81318;SDS011;70784;48.420;14.830;2023-06-22T09:45:38;4.07;;;1.58;;
81318;SDS011;70784;48.420;14.830;2023-06-22T09:48:23;11.15;;;3.40;;
81318;SDS011;70784;48.420;14.830;2023-06-22T09:51:07;5.90;;;2.50;;
81318;SDS011;70784;48.420;14.830;2023-06-22T09:53:52;4.50;;;2.33;;
81318;SDS011;70784;48.420;14.830;2023-06-22T09:56:40;6.18;;;1.70;;
81318;SDS011;70784;48.420;14.830;2023-06-22T09:59:24;4.75;;;1.70;;
81318;SDS011;70784;48.420;14.830;2023-06-22T10:02:09;6.60;;;3.08;;
81318;SDS011;70784;48.420;14.830;2023-06-22T10:04:54;3.17;;;2.03;;
81318;SDS011;70784;48.420;14.830;2023-06-22T10:07:38;8.43;;;2.13;;
81318;SDS011;70784;48.420;14.830;2023-06-22T10:10:24;3.58;;;2.03;;
81318;SDS011;70784;48.420;14.830;2023-06-22T10:13:09;4.15;;;1.65;;
81318;SDS011;70784;48.420;14.830;2023-06-22T10:15:55;4.93;;;2.47;;
81318;SDS011;70784;48.420;14.830;2023-06-22T10:18:39;4.05;;;2.53;;
81318;SDS011;70784;48.420;14.830;2023-06-22T10:21:24;9.57;;;2.90;;
81318;SDS011;70784;48.420;14.830;2023-06-22T10:24:11;6.75;;;3.20;;
81318;SDS011;70784;48.420;14.830;2023-06-22T10:26:55;5.63;;;2.58;;
81318;SDS011;70784;48.420;14.830;2023-06-22T10:29:41;3.67;;;2.10;;
81318;SDS011;70784;48.420;14.830;2023-06-22T10:32:25;6.28;;;2.80;;
81318;SDS011;70784;48.420;14.830;2023-06-22T10:35:12;6.45;;;3.08;;
81318;SDS011;70784;48.420;14.830;2023-06-22T10:38:00;6.93;;;2.90;;
81318;SDS011;70784;48.420;14.830;2023-06-22T10:40:45;5.43;;;2.70;;
81318;SDS011;70784;48.420;14.830;2023-06-22T10:43:29;8.55;;;3.20;;
81318;SDS011;70784;48.420;14.830;2023-06-22T10:46:14;7.18;;;2.78;;
81318;SDS011;70784;48.420;14.830;2023-06-22T10:48:58;4.78;;;2.50;;
81318;SDS011;70784;48.420;14.830;2023-06-22T10:51:43;4.25;;;2.03;;
81318;SDS011;70784;48.420;14.830;2023-06-22T10:54:27;9.23;;;2.53;;
81318;SDS011;70784;48.420;14.830;2023-06-22T10:57:13;5.40;;;1.90;;
81318;SDS011;70784;48.420;14.830;2023-06-22T10:59:58;10.73;;;3.25;;
81318;SDS011;70784;48.420;14.830;2023-06-22T11:02:44;6.72;;;1.80;;
81318;SDS011;70784;48.420;14.830;2023-06-22T11:05:28;2.95;;;1.65;;
81318;SDS011;70784;48.420;14.830;2023-06-22T11:08:13;4.13;;;2.55;;
81318;SDS011;70784;48.420;14.830;2023-06-22T11:10:57;3.95;;;1.67;;
81318;SDS011;70784;48.420;14.830;2023-06-22T11:13:42;2.20;;;1.42;;
81318;SDS011;70784;48.420;14.830;2023-06-22T11:16:26;6.03;;;1.08;;
81318;SDS011;70784;48.420;14.830;2023-06-22T11:19:11;6.30;;;2.35;;
81318;SDS011;70784;48.420;14.830;2023-06-22T11:21:56;5.38;;;2.75;;
81318;SDS011;70784;48.420;14.830;2023-06-22T11:24:41;3.42;;;1.60;;
81318;SDS011;70784;48.420;14.830;2023-06-22T11:27:25;6.18;;;2.55;;
81318;SDS011;70784;48.420;14.830;2023-06-22T11:30:09;4.97;;;2.05;;
81318;SDS011;70784;48.420;14.830;2023-06-22T11:32:56;8.52;;;2.45;;
81318;SDS011;70784;48.420;14.830;2023-06-22T11:35:41;4.78;;;2.50;;
81318;SDS011;70784;48.420;14.830;2023-06-22T11:38:26;6.10;;;2.45;;
81318;SDS011;70784;48.420;14.830;2023-06-22T11:41:10;3.90;;;1.92;;
81318;SDS011;70784;48.420;14.830;2023-06-22T11:43:55;7.53;;;2.30;;
81318;SDS011;70784;48.420;14.830;2023-06-22T11:46:39;4.07;;;1.80;;
81318;SDS011;70784;48.420;14.830;2023-06-22T11:49:24;3.92;;;1.90;;
81318;SDS011;70784;48.420;14.830;2023-06-22T11:52:08;3.55;;;2.28;;
81318;SDS011;70784;48.420;14.830;2023-06-22T11:54:53;10.43;;;2.97;;
81318;SDS011;70784;48.420;14.830;2023-06-22T11:57:38;9.23;;;1.92;;
81318;SDS011;70784;48.420;14.830;2023-06-22T12:00:35;9.93;;;3.17;;
81318;SDS011;70784;48.420;14.830;2023-06-22T12:03:20;8.85;;;2.80;;
81318;SDS011;70784;48.420;14.830;2023-06-22T12:06:08;8.25;;;2.40;;
81318;SDS011;70784;48.420;14.830;2023-06-22T12:08:53;7.97;;;2.30;;
81318;SDS011;70784;48.420;14.830;2023-06-22T12:11:37;10.32;;;2.95;;
81318;SDS011;70784;48.420;14.830;2023-06-22T12:14:21;5.95;;;2.08;;
81318;SDS011;70784;48.420;14.830;2023-06-22T12:17:06;5.57;;;2.45;;
81318;SDS011;70784;48.420;14.830;2023-06-22T12:19:51;6.38;;;2.58;;
81318;SDS011;70784;48.420;14.830;2023-06-22T12:22:35;7.65;;;2.92;;
81318;SDS011;70784;48.420;14.830;2023-06-22T12:25:22;3.55;;;1.63;;
81318;SDS011;70784;48.420;14.830;2023-06-22T12:28:06;5.55;;;2.03;;
81318;SDS011;70784;48.420;14.830;2023-06-22T12:30:51;6.75;;;2.42;;
81318;SDS011;70784;48.420;14.830;2023-06-22T12:33:35;8.25;;;3.13;;
81318;SDS011;70784;48.420;14.830;2023-06-22T12:36:20;6.18;;;2.28;;
81318;SDS011;70784;48.420;14.830;2023-06-22T12:39:04;12.20;;;3.17;;
81318;SDS011;70784;48.420;14.830;2023-06-22T12:41:49;4.82;;;2.38;;
81318;SDS011;70784;48.420;14.830;2023-06-22T12:44:34;10.05;;;3.53;;
81318;SDS011;70784;48.420;14.830;2023-06-22T12:47:19;6.90;;;2.88;;
81318;SDS011;70784;48.420;14.830;2023-06-22T12:50:04;4.05;;;2.70;;
81318;SDS011;70784;48.420;14.830;2023-06-22T12:52:49;4.53;;;1.80;;
81318;SDS011;70784;48.420;14.830;2023-06-22T12:55:33;6.60;;;2.63;;
81318;SDS011;70784;48.420;14.830;2023-06-22T12:58:18;7.05;;;2.58;;
81318;SDS011;70784;48.420;14.830;2023-06-22T13:01:02;5.75;;;2.30;;
81318;SDS011;70784;48.420;14.830;2023-06-22T13:03:47;8.57;;;3.10;;
81318;SDS011;70784;48.420;14.830;2023-06-22T13:06:31;8.27;;;3.63;;
81318;SDS011;70784;48.420;14.830;2023-06-22T13:09:17;5.57;;;3.05;;
81318;SDS011;70784;48.420;14.830;2023-06-22T13:12:02;5.55;;;3.35;;
81318;SDS011;70784;48.420;14.830;2023-06-22T13:14:47;11.25;;;3.55;;
81318;SDS011;70784;48.420;14.830;2023-06-22T13:17:32;7.20;;;2.60;;
81318;SDS011;70784;48.420;14.830;2023-06-22T13:20:16;11.55;;;3.55;;
81318;SDS011;70784;48.420;14.830;2023-06-22T13:23:01;3.72;;;2.13;;
81318;SDS011;70784;48.420;14.830;2023-06-22T13:25:45;4.50;;;2.58;;
81318;SDS011;70784;48.420;14.830;2023-06-22T13:28:30;7.55;;;3.22;;
81318;SDS011;70784;48.420;14.830;2023-06-22T13:31:14;8.70;;;2.92;;
81318;SDS011;70784;48.420;14.830;2023-06-22T13:33:59;7.40;;;2.60;;
81318;SDS011;70784;48.420;14.830;2023-06-22T13:36:43;12.00;;;3.30;;
81318;SDS011;70784;48.420;14.830;2023-06-22T13:39:28;13.23;;;3.65;;
81318;SDS011;70784;48.420;14.830;2023-06-22T13:42:12;8.18;;;3.28;;
81318;SDS011;70784;48.420;14.830;2023-06-22T13:44:57;2.30;;;1.67;;
81318;SDS011;70784;48.420;14.830;2023-06-22T13:47:41;6.15;;;3.03;;
81318;SDS011;70784;48.420;14.830;2023-06-22T13:50:25;7.95;;;2.45;;
81318;SDS011;70784;48.420;14.830;2023-06-22T13:53:10;6.32;;;3.08;;
81318;SDS011;70784;48.420;14.830;2023-06-22T13:55:55;7.70;;;3.33;;
81318;SDS011;70784;48.420;14.830;2023-06-22T13:58:40;7.13;;;2.85;;
81318;SDS011;70784;48.420;14.830;2023-06-22T14:01:25;6.25;;;3.30;;
81318;SDS011;70784;48.420;14.830;2023-06-22T14:04:10;10.68;;;3.47;;
81318;SDS011;70784;48.420;14.830;2023-06-22T14:06:54;10.25;;;3.35;;
81318;SDS011;70784;48.420;14.830;2023-06-22T14:09:40;8.93;;;3.55;;
81318;SDS011;70784;48.420;14.830;2023-06-22T14:12:24;8.50;;;3.58;;
81318;SDS011;70784;48.420;14.830;2023-06-22T14:15:08;9.57;;;3.35;;
81318;SDS011;70784;48.420;14.830;2023-06-22T14:17:53;7.82;;;3.08;;
81318;SDS011;70784;48.420;14.830;2023-06-22T14:20:38;12.80;;;3.70;;
81318;SDS011;70784;48.420;14.830;2023-06-22T14:23:24;8.40;;;4.03;;
81318;SDS011;70784;48.420;14.830;2023-06-22T14:26:08;10.90;;;4.07;;
81318;SDS011;70784;48.420;14.830;2023-06-22T14:28:53;9.57;;;4.07;;
81318;SDS011;70784;48.420;14.830;2023-06-22T14:31:37;4.88;;;2.55;;
81318;SDS011;70784;48.420;14.830;2023-06-22T14:34:22;4.72;;;2.92;;
81318;SDS011;70784;48.420;14.830;2023-06-22T14:37:07;8.57;;;4.25;;
81318;SDS011;70784;48.420;14.830;2023-06-22T14:39:54;12.10;;;5.00;;
81318;SDS011;70784;48.420;14.830;2023-06-22T14:42:38;7.97;;;4.15;;
81318;SDS011;70784;48.420;14.830;2023-06-22T14:45:23;6.57;;;4.03;;
81318;SDS011;70784;48.420;14.830;2023-06-22T14:48:08;13.48;;;5.22;;
81318;SDS011;70784;48.420;14.830;2023-06-22T14:50:53;4.85;;;2.80;;
81318;SDS011;70784;48.420;14.830;2023-06-22T14:53:38;12.38;;;5.07;;
81318;SDS011;70784;48.420;14.830;2023-06-22T14:56:23;15.10;;;4.28;;
81318;SDS011;70784;48.420;14.830;2023-06-22T14:59:08;11.63;;;3.65;;
81318;SDS011;70784;48.420;14.830;2023-06-22T15:01:53;8.25;;;4.22;;
81318;SDS011;70784;48.420;14.830;2023-06-22T15:04:38;10.23;;;4.10;;
81318;SDS011;70784;48.420;14.830;2023-06-22T15:07:22;10.57;;;4.78;;
81318;SDS011;70784;48.420;14.830;2023-06-22T15:10:07;10.65;;;4.80;;
81318;SDS011;70784;48.420;14.830;2023-06-22T15:12:52;3.00;;;1.92;;
81318;SDS011;70784;48.420;14.830;2023-06-22T15:15:37;17.15;;;5.60;;
81318;SDS011;70784;48.420;14.830;2023-06-22T15:18:21;5.47;;;3.40;;
81318;SDS011;70784;48.420;14.830;2023-06-22T15:21:05;6.85;;;3.40;;
81318;SDS011;70784;48.420;14.830;2023-06-22T15:23:50;10.90;;;3.75;;
81318;SDS011;70784;48.420;14.830;2023-06-22T15:26:35;10.82;;;4.55;;
81318;SDS011;70784;48.420;14.830;2023-06-22T15:29:19;7.63;;;2.95;;
81318;SDS011;70784;48.420;14.830;2023-06-22T15:32:04;9.75;;;4.93;;
81318;SDS011;70784;48.420;14.830;2023-06-22T15:34:49;8.73;;;4.25;;
81318;SDS011;70784;48.420;14.830;2023-06-22T15:37:35;7.63;;;4.60;;
81318;SDS011;70784;48.420;14.830;2023-06-22T15:40:20;8.55;;;4.20;;
81318;SDS011;70784;48.420;14.830;2023-06-22T15:43:04;8.85;;;4.45;;
81318;SDS011;70784;48.420;14.830;2023-06-22T15:45:49;9.38;;;3.97;;
81318;SDS011;70784;48.420;14.830;2023-06-22T15:48:33;8.98;;;4.75;;
81318;SDS011;70784;48.420;14.830;2023-06-22T15:51:18;11.23;;;3.90;;
81318;SDS011;70784;48.420;14.830;2023-06-22T15:54:02;13.10;;;4.22;;
81318;SDS011;70784;48.420;14.830;2023-06-22T15:56:47;9.80;;;4.25;;
81318;SDS011;70784;48.420;14.830;2023-06-22T15:59:32;6.65;;;3.63;;
81318;SDS011;70784;48.420;14.830;2023-06-22T16:02:16;8.07;;;3.67;;
81318;SDS011;70784;48.420;14.830;2023-06-22T16:05:01;7.20;;;3.53;;
81318;SDS011;70784;48.420;14.830;2023-06-22T16:07:47;8.23;;;4.10;;
81318;SDS011;70784;48.420;14.830;2023-06-22T16:10:31;5.90;;;3.65;;
81318;SDS011;70784;48.420;14.830;2023-06-22T16:13:16;7.57;;;3.42;;
81318;SDS011;70784;48.420;14.830;2023-06-22T16:16:00;9.95;;;4.47;;
81318;SDS011;70784;48.420;14.830;2023-06-22T16:18:45;12.23;;;3.80;;
81318;SDS011;70784;48.420;14.830;2023-06-22T16:21:31;10.68;;;4.28;;
81318;SDS011;70784;48.420;14.830;2023-06-22T16:24:15;8.75;;;3.80;;
81318;SDS011;70784;48.420;14.830;2023-06-22T16:27:00;14.98;;;5.18;;
81318;SDS011;70784;48.420;14.830;2023-06-22T16:29:44;9.52;;;4.00;;
81318;SDS011;70784;48.420;14.830;2023-06-22T16:32:29;5.13;;;3.45;;
81318;SDS011;70784;48.420;14.830;2023-06-22T16:35:13;6.80;;;2.92;;
81318;SDS011;70784;48.420;14.830;2023-06-22T16:37:58;7.28;;;3.30;;